createdAt,value
2018-06-04T00:02:09.293Z,5.67
2018-06-04T00:04:36.752Z,4.60
2018-06-04T00:07:04.947Z,5.50
2018-06-04T00:09:32.442Z,6.03
2018-06-04T00:11:59.973Z,4.83
2018-06-04T00:14:27.541Z,4.47
2018-06-04T00:16:55.057Z,4.47
2018-06-04T00:19:22.544Z,4.40
2018-06-04T00:21:50.078Z,4.50
2018-06-04T00:24:17.574Z,4.77
2018-06-04T00:26:46.263Z,4.73
2018-06-04T00:29:13.764Z,5.40
2018-06-04T00:31:41.320Z,4.83
2018-06-04T00:34:08.835Z,6.50
2018-06-04T00:36:36.408Z,5.27
2018-06-04T00:39:06.242Z,5.10
2018-06-04T00:41:33.764Z,6.77
2018-06-04T00:44:01.273Z,4.93
2018-06-04T00:46:28.856Z,7.23
2018-06-04T00:48:56.352Z,4.43
2018-06-04T00:51:23.874Z,5.50
2018-06-04T00:53:51.366Z,5.33
2018-06-04T00:56:21.070Z,7.10
2018-06-04T00:58:48.561Z,6.23
2018-06-04T01:01:16.092Z,8.23
2018-06-04T01:03:43.620Z,7.33
2018-06-04T01:06:11.129Z,6.07
2018-06-04T01:08:38.669Z,5.43
2018-06-04T01:11:06.973Z,5.23
2018-06-04T01:13:34.548Z,5.60
2018-06-04T01:16:02.054Z,6.70
2018-06-04T01:18:29.584Z,6.40
2018-06-04T01:20:57.115Z,6.53
2018-06-04T01:23:24.628Z,6.37
2018-06-04T01:25:52.247Z,6.43
2018-06-04T01:28:19.865Z,6.23
2018-06-04T01:30:47.376Z,6.07
2018-06-04T01:33:14.883Z,6.83
2018-06-04T01:35:42.377Z,7.30
2018-06-04T01:38:09.885Z,7.70
2018-06-04T01:40:37.457Z,9.10
2018-06-04T01:43:05.021Z,6.97
2018-06-04T01:45:32.512Z,6.60
2018-06-04T01:48:00.028Z,7.53
2018-06-04T01:50:27.996Z,7.03
2018-06-04T01:52:55.508Z,9.20
2018-06-04T01:55:23.013Z,6.83
2018-06-04T01:57:50.531Z,6.93
2018-06-04T02:00:18.082Z,7.97
2018-06-04T02:02:45.612Z,6.27
2018-06-04T02:05:13.110Z,6.50
2018-06-04T02:07:40.614Z,9.23
2018-06-04T02:10:08.112Z,7.60
2018-06-04T02:12:35.632Z,8.47
2018-06-04T02:15:04.124Z,6.80
2018-06-04T02:17:31.640Z,6.30
2018-06-04T02:19:59.132Z,7.33
2018-06-04T02:22:26.649Z,7.13
2018-06-04T02:24:54.146Z,9.10
2018-06-04T02:27:21.653Z,7.93
2018-06-04T02:29:49.140Z,8.53
2018-06-04T02:32:16.653Z,9.47
2018-06-04T02:34:44.183Z,7.40
2018-06-04T02:37:11.692Z,10.67
2018-06-04T02:39:39.210Z,6.97
2018-06-04T02:42:06.746Z,8.87
2018-06-04T02:44:34.287Z,7.20
2018-06-04T02:47:01.782Z,8.17
2018-06-04T02:49:29.297Z,7.40
2018-06-04T02:51:56.792Z,9.93
2018-06-04T02:54:24.322Z,9.43
2018-06-04T02:56:51.746Z,8.47
2018-06-04T02:59:19.309Z,10.90
2018-06-04T03:01:46.797Z,10.33
2018-06-04T03:04:14.332Z,8.20
2018-06-04T03:06:41.905Z,9.10
2018-06-04T03:09:09.437Z,8.53
2018-06-04T03:11:36.941Z,8.23
2018-06-04T03:14:05.245Z,8.43
2018-06-04T03:16:33.016Z,9.40
2018-06-04T03:19:00.554Z,8.87
2018-06-04T03:21:28.249Z,10.23
2018-06-04T03:23:55.793Z,9.57
2018-06-04T03:26:23.273Z,8.93
2018-06-04T03:28:50.845Z,12.60
2018-06-04T03:31:18.365Z,9.10
2018-06-04T03:33:45.901Z,9.90
2018-06-04T03:36:13.391Z,9.43
2018-06-04T03:38:40.906Z,9.97
2018-06-04T03:41:08.408Z,10.07
2018-06-04T03:43:35.935Z,9.10
2018-06-04T03:46:03.468Z,11.03
2018-06-04T03:48:31.009Z,9.07
2018-06-04T03:50:58.508Z,10.20
2018-06-04T03:53:26.056Z,8.43
2018-06-04T03:55:53.556Z,8.97
2018-06-04T03:58:21.080Z,10.97
2018-06-04T04:00:48.680Z,9.63
2018-06-04T04:03:16.191Z,10.17
2018-06-04T04:05:43.713Z,10.53
2018-06-04T04:08:11.221Z,9.23
2018-06-04T04:10:38.752Z,10.50
2018-06-04T04:13:06.449Z,9.93
2018-06-04T04:18:07.317Z,10.57
2018-06-04T04:20:34.846Z,9.83
2018-06-04T04:23:02.370Z,9.87
2018-06-04T04:25:29.897Z,11.47
2018-06-04T04:27:57.411Z,10.10
2018-06-04T04:30:25.050Z,10.30
2018-06-04T04:32:52.590Z,9.40
2018-06-04T04:35:20.127Z,9.90
2018-06-04T04:37:47.686Z,10.77
2018-06-04T04:40:15.161Z,12.17
2018-06-04T04:42:42.714Z,10.93
2018-06-04T04:45:10.224Z,10.27
2018-06-04T04:47:37.808Z,10.87
2018-06-04T04:50:05.326Z,10.83
2018-06-04T04:52:32.817Z,10.97
2018-06-04T04:55:00.349Z,11.63
2018-06-04T04:57:27.833Z,13.60
2018-06-04T04:59:55.357Z,11.10
2018-06-04T05:02:22.849Z,12.63
2018-06-04T05:04:50.363Z,12.47
2018-06-04T05:07:17.845Z,12.03
2018-06-04T05:09:45.385Z,12.17
2018-06-04T05:12:12.869Z,13.07
2018-06-04T05:14:40.400Z,11.00
2018-06-04T05:17:07.914Z,11.13
2018-06-04T05:19:35.571Z,12.67
2018-06-04T05:22:03.121Z,12.07
2018-06-04T05:24:30.637Z,13.00
2018-06-04T05:26:58.128Z,12.83
2018-06-04T05:29:25.628Z,12.93
2018-06-04T05:31:53.145Z,13.70
2018-06-04T05:34:20.633Z,12.03
2018-06-04T05:36:48.144Z,13.03
2018-06-04T05:39:15.668Z,11.80
2018-06-04T05:41:43.204Z,12.10
2018-06-04T05:44:10.709Z,12.17
2018-06-04T05:46:38.243Z,12.53
2018-06-04T05:49:05.737Z,13.43
2018-06-04T05:51:33.256Z,13.70
2018-06-04T05:54:00.757Z,14.13
2018-06-04T05:56:28.302Z,11.80
2018-06-04T05:58:55.956Z,12.93
2018-06-04T06:01:23.508Z,12.80
2018-06-04T06:03:51.024Z,12.97
2018-06-04T06:06:18.598Z,12.23
2018-06-04T06:08:46.282Z,15.43
2018-06-04T06:11:13.815Z,12.40
2018-06-04T06:13:41.613Z,12.40
2018-06-04T06:16:09.162Z,13.57
2018-06-04T06:18:36.696Z,13.23
2018-06-04T06:21:04.322Z,14.93
2018-06-04T06:23:31.909Z,14.30
2018-06-04T06:25:59.459Z,14.20
2018-06-04T06:28:27.218Z,17.87
2018-06-04T06:30:54.777Z,14.50
2018-06-04T06:33:22.329Z,14.20
2018-06-04T06:35:49.856Z,17.87
2018-06-04T06:38:17.339Z,16.03
2018-06-04T06:45:27.382Z,15.27
2018-06-04T06:47:55.728Z,14.83
2018-06-04T06:50:23.310Z,14.10
2018-06-04T06:52:50.845Z,14.20
2018-06-04T06:55:18.394Z,15.00
2018-06-04T06:57:45.958Z,14.73
2018-06-04T07:00:13.525Z,14.60
2018-06-04T07:02:40.967Z,14.50
2018-06-04T07:05:08.515Z,14.87
2018-06-04T07:07:36.139Z,15.80
2018-06-04T07:10:03.692Z,14.80
2018-06-04T07:12:31.192Z,15.93
2018-06-04T07:14:58.676Z,15.73
2018-06-04T07:17:26.125Z,15.67
2018-06-04T07:19:53.624Z,14.40
2018-06-04T07:22:21.145Z,14.80
2018-06-04T07:24:48.549Z,15.03
2018-06-04T07:27:16.062Z,14.70
2018-06-04T07:29:43.602Z,14.17
2018-06-04T07:32:11.130Z,15.77
2018-06-04T07:34:38.621Z,15.43
2018-06-04T07:37:06.137Z,15.00
2018-06-04T07:39:33.633Z,14.23
2018-06-04T07:42:01.138Z,13.20
2018-06-04T07:44:28.631Z,14.53
2018-06-04T07:46:56.157Z,12.60
2018-06-04T07:49:23.648Z,14.97
2018-06-04T07:51:51.152Z,13.23
2018-06-04T07:54:18.564Z,13.60
2018-06-04T07:56:46.081Z,13.47
2018-06-04T07:59:13.572Z,13.77
2018-06-04T08:01:41.093Z,13.50
2018-06-04T08:04:08.597Z,15.43
2018-06-04T08:06:36.217Z,14.90
2018-06-04T08:09:05.081Z,15.03
2018-06-04T08:11:32.597Z,12.30
2018-06-04T08:14:00.109Z,14.50
2018-06-04T08:16:27.564Z,13.33
2018-06-04T08:18:54.976Z,11.37
2018-06-04T08:21:22.488Z,12.03
2018-06-04T08:23:50.022Z,12.77
2018-06-04T08:26:17.513Z,13.37
2018-06-04T08:28:45.058Z,12.27
2018-06-04T08:31:12.521Z,13.83
2018-06-04T08:33:40.109Z,11.80
2018-06-04T08:36:07.657Z,12.77
2018-06-04T08:38:35.192Z,14.40
2018-06-04T08:41:02.672Z,13.77
2018-06-04T08:43:30.175Z,12.83
2018-06-04T08:45:57.754Z,14.73
2018-06-04T08:48:25.212Z,13.37
2018-06-04T08:50:52.760Z,15.93
2018-06-04T08:53:20.233Z,11.60
2018-06-04T08:55:47.728Z,12.43
2018-06-04T08:58:15.237Z,11.83
2018-06-04T09:00:42.733Z,11.83
2018-06-04T09:03:10.245Z,12.63
2018-06-04T09:05:37.767Z,11.57
2018-06-04T09:08:05.302Z,10.93
2018-06-04T09:10:32.716Z,11.00
2018-06-04T09:13:00.222Z,11.10
2018-06-04T09:15:27.722Z,12.70
2018-06-04T09:17:55.268Z,12.37
2018-06-04T09:20:22.761Z,10.20
2018-06-04T09:22:50.275Z,10.07
2018-06-04T09:25:17.781Z,11.03
2018-06-04T09:27:45.296Z,10.37
2018-06-04T09:30:12.816Z,10.97
2018-06-04T09:32:40.353Z,10.17
2018-06-04T09:35:07.856Z,10.63
2018-06-04T09:37:35.512Z,11.60
2018-06-04T09:40:03.149Z,11.80
2018-06-04T09:42:30.930Z,9.70
2018-06-04T09:44:58.410Z,10.13
2018-06-04T09:47:26.119Z,10.27
2018-06-04T09:49:53.616Z,10.57
2018-06-04T09:52:21.145Z,10.20
2018-06-04T09:54:48.664Z,10.57
2018-06-04T09:57:16.149Z,10.63
2018-06-04T09:59:43.651Z,9.93
2018-06-04T10:02:11.055Z,9.53
2018-06-04T10:04:38.600Z,10.37
2018-06-04T10:07:06.109Z,9.57
2018-06-04T10:09:33.644Z,10.77
2018-06-04T10:12:01.209Z,9.70
2018-06-04T10:14:28.773Z,11.60
2018-06-04T10:16:56.308Z,10.37
2018-06-04T10:19:23.849Z,11.00
2018-06-04T10:21:51.417Z,8.83
2018-06-04T10:24:19.099Z,9.57
2018-06-04T10:26:46.625Z,9.63
2018-06-04T10:29:14.237Z,9.80
2018-06-04T10:31:42.241Z,10.40
2018-06-04T10:34:09.914Z,9.90
2018-06-04T10:36:37.505Z,10.03
2018-06-04T10:39:06.465Z,8.30
2018-06-04T10:41:34.025Z,9.73
2018-06-04T10:44:01.660Z,9.67
2018-06-04T10:46:29.164Z,9.93
2018-06-04T10:48:56.865Z,8.83
2018-06-04T10:51:24.388Z,8.47
2018-06-04T10:53:51.982Z,8.90
2018-06-04T10:56:19.516Z,9.17
2018-06-04T10:58:47.078Z,8.90
2018-06-04T11:01:14.651Z,9.60
2018-06-04T11:03:42.200Z,8.33
2018-06-04T11:06:10.329Z,11.20
2018-06-04T11:08:37.818Z,8.87
2018-06-04T11:11:05.355Z,9.10
2018-06-04T11:13:32.905Z,9.00
2018-06-04T11:16:00.412Z,9.17
2018-06-04T11:18:27.931Z,7.83
2018-06-04T11:20:55.458Z,9.60
2018-06-04T11:23:22.954Z,9.00
2018-06-04T11:25:50.511Z,8.50
2018-06-04T11:28:17.928Z,8.73
2018-06-04T11:30:45.444Z,8.77
2018-06-04T11:33:12.961Z,8.70
2018-06-04T11:35:40.431Z,7.80
2018-06-04T11:38:07.852Z,8.70
2018-06-04T11:40:35.369Z,7.87
2018-06-04T11:43:02.888Z,6.53
2018-06-04T11:45:30.413Z,8.77
2018-06-04T11:47:57.924Z,7.43
2018-06-04T11:50:25.557Z,8.10
2018-06-04T11:52:53.052Z,9.20
2018-06-04T11:55:20.560Z,7.23
2018-06-04T11:57:48.053Z,8.23
2018-06-04T12:00:15.521Z,7.13
2018-06-04T12:02:42.940Z,7.60
2018-06-04T12:05:10.505Z,7.77
2018-06-04T12:07:37.976Z,6.97
2018-06-04T12:10:05.494Z,6.37
2018-06-04T12:12:33.008Z,6.70
2018-06-04T12:15:00.540Z,6.10
2018-06-04T12:17:28.101Z,6.23
2018-06-04T12:19:55.717Z,6.53
2018-06-04T12:22:23.328Z,8.77
2018-06-04T12:24:51.229Z,6.53
2018-06-04T12:27:19.021Z,7.03
2018-06-04T12:29:46.745Z,6.00
2018-06-04T12:32:14.204Z,5.93
2018-06-04T12:34:41.865Z,6.90
2018-06-04T12:37:09.442Z,5.60
2018-06-04T12:39:37.279Z,6.87
2018-06-04T12:42:04.813Z,6.33
2018-06-04T12:44:32.336Z,7.30
2018-06-04T12:47:00.032Z,5.83
2018-06-04T12:49:27.599Z,5.53
2018-06-04T12:51:55.208Z,5.47
2018-06-04T12:54:22.788Z,5.83
2018-06-04T12:56:50.333Z,5.63
2018-06-04T12:59:17.911Z,4.87
2018-06-04T13:01:45.499Z,4.53
2018-06-04T13:04:13.086Z,5.77
2018-06-04T13:06:40.664Z,4.90
2018-06-04T13:09:08.199Z,4.93
2018-06-04T13:11:35.865Z,5.40
2018-06-04T13:14:03.604Z,6.53
2018-06-04T13:16:31.285Z,4.60
2018-06-04T13:18:58.828Z,5.40
2018-06-04T13:21:26.456Z,6.03
2018-06-04T13:23:53.984Z,5.87
2018-06-04T13:26:22.006Z,4.83
2018-06-04T13:28:49.518Z,5.27
2018-06-04T13:31:17.103Z,4.77
2018-06-04T13:33:44.584Z,4.37
2018-06-04T13:36:12.112Z,5.47
2018-06-04T13:38:39.643Z,5.37
2018-06-04T13:41:07.137Z,5.07
2018-06-04T13:43:34.705Z,4.70
2018-06-04T13:46:02.268Z,4.33
2018-06-04T13:48:29.776Z,4.90
2018-06-04T13:50:57.309Z,4.87
2018-06-04T13:53:24.857Z,4.83
2018-06-04T13:55:52.394Z,5.13
2018-06-04T13:58:20.024Z,4.00
2018-06-04T14:00:47.517Z,4.17
2018-06-04T14:03:15.059Z,3.93
2018-06-04T14:05:42.625Z,4.83
2018-06-04T14:08:10.199Z,4.40
2018-06-04T14:10:37.759Z,5.90
2018-06-04T14:13:05.486Z,4.93
2018-06-04T14:15:32.933Z,4.40
2018-06-04T14:18:00.590Z,4.77
2018-06-04T14:20:28.136Z,4.23
2018-06-04T14:22:55.719Z,5.93
2018-06-04T14:25:23.177Z,5.27
2018-06-04T14:27:50.641Z,4.80
2018-06-04T14:30:18.160Z,6.03
2018-06-04T14:32:45.717Z,5.23
2018-06-04T14:35:13.306Z,5.47
2018-06-04T14:37:40.964Z,5.60
2018-06-04T14:40:08.584Z,6.67
2018-06-04T14:42:36.277Z,6.80
2018-06-04T14:45:04.699Z,5.90
2018-06-04T14:47:32.720Z,6.03
2018-06-04T14:50:00.432Z,5.80
2018-06-04T14:52:28.149Z,5.83
2018-06-04T14:54:55.762Z,5.63
2018-06-04T14:57:23.396Z,5.57
2018-06-04T14:59:51.060Z,5.13
2018-06-04T15:02:18.790Z,5.57
2018-06-04T15:04:46.443Z,5.63
2018-06-04T15:07:14.092Z,5.60
2018-06-04T15:09:41.663Z,6.10
2018-06-04T15:12:09.289Z,7.17
2018-06-04T15:14:36.856Z,5.13
2018-06-04T15:17:04.684Z,6.03
2018-06-04T15:19:32.334Z,5.80
2018-06-04T15:21:59.973Z,5.37
2018-06-04T15:24:27.716Z,6.20
2018-06-04T15:26:55.316Z,5.70
2018-06-04T15:29:22.856Z,6.13
2018-06-04T15:31:50.402Z,6.33
2018-06-04T15:34:17.977Z,7.07
2018-06-04T15:36:45.848Z,6.87
2018-06-04T15:39:13.531Z,7.90
2018-06-04T15:41:41.141Z,6.83
2018-06-04T15:44:08.742Z,7.47
2018-06-04T15:46:36.956Z,7.93
2018-06-04T15:49:04.467Z,7.17
2018-06-04T15:51:32.190Z,6.57
2018-06-04T15:53:59.611Z,8.00
2018-06-04T15:56:27.120Z,8.20
2018-06-04T15:58:54.616Z,7.03
2018-06-04T16:01:22.131Z,7.37
2018-06-04T16:03:49.624Z,7.10
2018-06-04T16:06:17.136Z,7.20
2018-06-04T16:08:44.548Z,6.83
2018-06-04T16:11:12.044Z,7.00
2018-06-04T16:13:39.467Z,7.03
2018-06-04T16:16:07.255Z,7.23
2018-06-04T16:18:34.896Z,6.83
2018-06-04T16:21:02.517Z,7.80
2018-06-04T16:23:30.327Z,6.70
2018-06-04T16:25:57.906Z,6.83
2018-06-04T16:28:25.368Z,6.30
2018-06-04T16:30:53.132Z,6.80
2018-06-04T16:33:21.096Z,8.17
2018-06-04T16:35:48.796Z,6.10
2018-06-04T16:38:16.463Z,5.97
2018-06-04T16:40:44.104Z,6.40
2018-06-04T16:43:11.588Z,7.43
2018-06-04T16:45:39.138Z,5.87
2018-06-04T16:48:07.683Z,6.20
2018-06-04T16:50:35.239Z,6.00
2018-06-04T16:53:02.993Z,6.20
2018-06-04T16:55:30.625Z,6.23
2018-06-04T16:57:58.330Z,5.77
2018-06-04T17:00:25.950Z,6.33
2018-06-04T17:02:53.708Z,6.70
2018-06-04T17:05:21.973Z,5.80
2018-06-04T17:07:49.668Z,6.60
2018-06-04T17:10:17.948Z,6.17
2018-06-04T17:12:45.708Z,7.23
2018-06-04T17:15:13.296Z,6.77
2018-06-04T17:17:41.549Z,5.67
2018-06-04T17:20:09.152Z,5.90
2018-06-04T17:22:36.700Z,6.00
2018-06-04T17:25:04.417Z,6.20
2018-06-04T17:27:31.967Z,5.80
2018-06-04T17:29:59.609Z,6.07
2018-06-04T17:32:27.215Z,6.60
2018-06-04T17:34:54.775Z,8.83
2018-06-04T17:37:22.594Z,6.13
2018-06-04T17:39:50.349Z,6.30
2018-06-04T17:42:17.938Z,6.27
2018-06-04T17:44:45.537Z,7.07
2018-06-04T17:47:13.469Z,6.30
2018-06-04T17:49:41.121Z,7.77
2018-06-04T17:52:08.871Z,5.80
2018-06-04T17:54:36.476Z,9.17
2018-06-04T17:57:04.266Z,7.37
2018-06-04T17:59:33.181Z,8.60
2018-06-04T18:02:00.657Z,6.27
2018-06-04T18:04:28.313Z,5.87
2018-06-04T18:06:56.915Z,5.43
2018-06-04T18:09:24.469Z,6.33
2018-06-04T18:11:52.249Z,6.93
2018-06-04T18:14:19.786Z,5.70
2018-06-04T18:16:47.353Z,6.90
2018-06-04T18:19:14.860Z,6.10
2018-06-04T18:21:42.370Z,7.00
2018-06-04T18:24:10.421Z,5.43
2018-06-04T18:26:38.699Z,7.27
2018-06-04T18:29:06.309Z,5.67
2018-06-04T18:31:33.949Z,7.30
2018-06-04T18:34:01.480Z,6.50
2018-06-04T18:36:28.967Z,6.77
2018-06-04T18:38:56.671Z,6.93
2018-06-04T18:41:24.359Z,7.27
2018-06-04T18:43:51.808Z,6.73
2018-06-04T18:46:19.365Z,6.00
2018-06-04T18:48:46.928Z,7.10
2018-06-04T18:51:14.671Z,8.40
2018-06-04T18:53:42.259Z,8.27
2018-06-04T18:56:09.829Z,8.63
2018-06-04T18:58:37.429Z,7.07
2018-06-04T19:01:05.233Z,6.27
2018-06-04T19:03:32.808Z,6.30
2018-06-04T19:06:00.392Z,8.50
2018-06-04T19:08:27.892Z,7.80
2018-06-04T19:10:55.426Z,7.70
2018-06-04T19:13:22.936Z,8.07
2018-06-04T19:15:50.452Z,7.57
2018-06-04T19:18:17.971Z,8.40
2018-06-04T19:20:45.427Z,8.27
2018-06-04T19:23:12.928Z,6.77
2018-06-04T19:25:40.558Z,7.03
2018-06-04T19:28:08.101Z,7.47
2018-06-04T19:30:36.236Z,7.77
2018-06-04T19:33:04.389Z,7.57
2018-06-04T19:35:31.908Z,8.27
2018-06-04T19:37:59.431Z,8.67
2018-06-04T19:40:26.965Z,8.23
2018-06-04T19:42:54.472Z,9.70
2018-06-04T19:45:21.989Z,7.60
2018-06-04T19:47:49.543Z,8.80
2018-06-04T19:50:17.068Z,8.07
2018-06-04T19:52:44.632Z,9.23
2018-06-04T19:55:12.066Z,10.30
2018-06-04T19:57:39.813Z,8.47
2018-06-04T20:00:07.412Z,8.23
2018-06-04T20:02:34.964Z,7.80
2018-06-04T20:05:02.461Z,8.60
2018-06-04T20:07:29.998Z,11.67
2018-06-04T20:09:57.520Z,8.47
2018-06-04T20:12:25.078Z,8.67
2018-06-04T20:14:52.610Z,10.03
2018-06-04T20:17:20.193Z,8.80
2018-06-04T20:19:47.751Z,9.13
2018-06-04T20:22:15.280Z,9.73
2018-06-04T20:24:42.857Z,9.73
2018-06-04T20:27:10.412Z,8.90
2018-06-04T20:29:37.928Z,9.07
2018-06-04T20:32:05.471Z,11.97
2018-06-04T20:34:32.989Z,8.47
2018-06-04T20:37:00.480Z,7.97
2018-06-04T20:39:27.994Z,8.67
2018-06-04T20:41:55.483Z,8.80
2018-06-04T20:44:23.061Z,7.90
2018-06-04T20:46:50.575Z,8.23
2018-06-04T20:49:18.076Z,9.37
2018-06-04T20:51:45.556Z,9.27
2018-06-04T20:54:13.000Z,9.13
2018-06-04T20:56:40.497Z,9.90
2018-06-04T20:59:08.080Z,8.60
2018-06-04T21:01:35.571Z,9.40
2018-06-04T21:04:03.096Z,9.30
2018-06-04T21:06:30.601Z,12.13
2018-06-04T21:08:58.040Z,8.53
2018-06-04T21:11:25.534Z,10.83
2018-06-04T21:13:53.086Z,10.27
2018-06-04T21:16:20.592Z,11.30
2018-06-04T21:18:48.077Z,10.97
2018-06-04T21:21:15.616Z,10.67
2018-06-04T21:23:43.112Z,10.23
2018-06-04T21:26:10.564Z,9.97
2018-06-04T21:28:38.084Z,11.57
2018-06-04T21:31:05.633Z,11.57
2018-06-04T21:33:33.148Z,11.63
2018-06-04T21:36:00.595Z,11.10
2018-06-04T21:38:28.079Z,10.43
2018-06-04T21:40:55.597Z,10.83
2018-06-04T21:43:23.117Z,12.03
2018-06-04T21:45:50.638Z,8.87
2018-06-04T21:48:18.064Z,10.50
2018-06-04T21:50:45.586Z,10.67
2018-06-04T21:53:13.100Z,11.10
2018-06-04T21:55:40.624Z,12.83
2018-06-04T21:58:08.153Z,10.67
2018-06-04T22:01:11.245Z,12.03
2018-06-04T22:03:38.826Z,11.53
2018-06-04T22:06:06.348Z,10.43
2018-06-04T22:08:33.765Z,11.37
2018-06-04T22:11:01.280Z,10.47
2018-06-04T22:13:28.784Z,10.00
2018-06-04T22:15:56.328Z,12.17
2018-06-04T22:18:23.824Z,10.30
2018-06-04T22:20:51.349Z,11.07
2018-06-04T22:23:18.856Z,13.93
2018-06-04T22:25:46.408Z,11.13
2018-06-04T22:28:13.936Z,12.53
2018-06-04T22:30:41.480Z,11.27
2018-06-04T22:33:09.038Z,10.03
2018-06-04T22:35:36.567Z,12.17
2018-06-04T22:38:04.085Z,11.47
2018-06-04T22:40:31.631Z,11.50
2018-06-04T22:42:59.112Z,12.00
2018-06-04T22:45:26.644Z,14.17
2018-06-04T22:47:54.137Z,15.57
2018-06-04T22:50:21.640Z,12.60
2018-06-04T22:52:49.149Z,13.77
2018-06-04T22:55:16.665Z,10.67
2018-06-04T22:57:44.157Z,13.20
2018-06-04T23:00:30.845Z,12.43
2018-06-04T23:02:58.344Z,11.83
2018-06-04T23:05:26.033Z,11.23
2018-06-04T23:07:53.520Z,13.70
2018-06-04T23:10:21.031Z,13.37
2018-06-04T23:12:48.525Z,12.20
2018-06-04T23:15:16.018Z,11.53
2018-06-04T23:17:43.531Z,11.90
2018-06-04T23:20:11.032Z,12.67
2018-06-04T23:22:38.597Z,12.83
2018-06-04T23:25:06.092Z,14.13
2018-06-04T23:27:34.125Z,12.90
2018-06-04T23:30:01.629Z,11.93
2018-06-04T23:32:29.158Z,12.40
2018-06-04T23:34:56.652Z,14.60
2018-06-04T23:37:24.165Z,12.43
2018-06-04T23:39:51.645Z,11.80
2018-06-04T23:42:19.169Z,12.40
2018-06-04T23:44:46.676Z,13.23
2018-06-04T23:47:14.182Z,15.10
2018-06-04T23:49:41.692Z,12.83
2018-06-04T23:52:09.221Z,14.53
2018-06-04T23:54:36.704Z,13.70
2018-06-04T23:57:04.246Z,13.17
2018-06-04T23:59:31.752Z,12.60
